This demonstration page uses our WeatherBlox Daily Observations layout. Learn more.

Left ArrowRight Arrow

38.83388, -104.82136

Hourly Observations for September 30, 2022

Temp ( °F °C ) Dew Point ( °F °C ) Humidity (%) Winds ( mph kmh ) Pressure ( in mb ) Visibility ( mi km ) Precip ( " mm )
12:56 am 00:56 Clear 63 17.4 35 1.4 34 34 WNW 8 13 28.96 981 10 16 0.00 0.00
1:56 am 01:56 Clear 61 16.1 35 1.4 37 37 Calm 28.94 980 10 16 0.00 0.00
2:56 am 02:56 Clear 61 16 34 1.3 37 37 Calm 28.94 980 10 16 0.00 0.00
3:56 am 03:56 Clear 60 15.6 34 1.3 38 38 WNW 6 9 28.95 980 10 16 0.00 0.00
4:56 am 04:56 Clear 60 15.7 33 0.7 36 36 WNW 7 11 28.97 981 10 16 0.00 0.00
5:56 am 05:56 Clear 59 15.2 34 1.3 39 39 WNW 7 11 28.95 981 10 16 0.00 0.00
6:56 am 06:56 Mostly Cloudy 59 15.1 34 1.2 39 39 WNW 5 7 28.95 981 10 16 0.00 0.00
7:56 am 07:56 Sunny 64 17.9 37 2.6 36 36 Calm 29.00 982 10 16 0.00 0.00
8:56 am 08:56 Sunny 66 18.8 37 2.6 34 34 ESE 3 6 29.11 986 10 16 0.00 0.00
9:56 am 09:56 Sunny 69 20.3 38 3.1 32 32 ENE 5 7 29.18 988 10 16 0.00 0.00
10:56 am 10:56 Sunny 71 21.9 37 2.6 28 28 E 6 9 29.22 990 10 16 0.00 0.00
11:56 am 11:56 Mostly Sunny 73 22.6 33 0.4 23 23 NW 5 7 29.29 992 10 16 0.00 0.00
12:56 pm 12:56 Cloudy 71 21.9 35 1.5 26 26 N 3 6 29.23 990 10 16 0.00 0.00
1:03 pm 13:03 Cloudy with Light Rain 72 22 36 2 27 27 NW 3 6 29.17 988 10 16 0.00 0.00
1:18 pm 13:18 Cloudy 73 23 36 2 25 25 ESE 7 11 29.17 988 10 16 0.00 0.00
1:56 pm 13:56 Cloudy 71 21.9 34 1 25 25 Calm 29.13 987 10 16 0.01 0.13
2:06 pm 14:06 Cloudy with Light Rain 72 22 36 2 27 27 Calm 29.13 987 10 16 0.00 0.00
2:19 pm 14:19 Mostly Cloudy 72 22 36 2 27 27 Calm 29.17 988 10 16 0.00 0.00
2:40 pm 14:40 Cloudy with Light Rain 70 21 37 3 30 30 S 7 11 29.11 986 10 16 0.00 0.00
2:56 pm 14:56 Cloudy 69 20.3 37 2.6 31 31 WSW 8 13 29.05 984 10 16 0.01 0.13
3:56 pm 15:56 Partly Cloudy 71 21.9 36 2 27 27 Calm 29.17 988 10 16 0.00 0.00
4:56 pm 16:56 Cloudy 69 20.5 37 2.8 31 31 N 9 15 29.02 983 10 16 0.00 0.00
5:56 pm 17:56 Sunny 67 19.4 36 2.3 32 32 NW 9 15 28.94 980 10 16 0.00 0.00
6:56 pm 18:56 Mostly Cloudy 61 16.2 43 6 51 51 NNW 15 24 28.91 979 10 16 0.00 0.00
7:52 pm 19:52 Cloudy with Light Rain 59 15 43 6 55 55 NW 24 39 28.87 978 10 16 0.00 0.00
7:56 pm 19:56 Cloudy with Light Rain 61 16 43 5.9 51 51 NW 21 33 28.85 977 10 16 0.01 0.13
8:03 pm 20:03 Cloudy 63 17 41 5 45 45 NW 20 31 28.86 977 10 16 0.00 0.00
8:56 pm 20:56 Cloudy 61 16.2 40 4.2 45 45 NW 22 35 28.91 979 10 16 0.01 0.13
9:56 pm 21:56 Mostly Cloudy 62 16.7 39 3.7 42 42 NW 14 22 28.84 977 10 16 0.00 0.00
10:56 pm 22:56 Partly Cloudy 59 15 41 5.2 52 52 N 16 26 28.87 978 10 16 0.00 0.00
11:56 pm 23:56 Mostly Clear 54 12.1 43 6.2 67 67 N 14 22 28.89 978 10 16 0.00 0.00

Powered by AerisWeather